^^
Meteo Knjazevac Station Historical Data
Daily Summary for August 24, 2021 Units:  Metric    English   Both
Daily Weekly Monthly Yearly Custom
  High: Low: Average:
Temperature: 16.7 °C 13 °C 14.7 °C
Dew Point: 14.8 °C 12.2 °C 13.4 °C
Humidity: 96% 88% 92%
Wind Speed: 3.2km/h 0km/h 0.8km/h
Wind Gust: 6.4km/h - -
Wind- - West
Pressure: 1018.5 hPa 1018.2 hPa -
Precipitation: 0 mm    
Historical Graphs
 
 
Tabular Data for August 24, 2021
Time Temperature Dew Point Pressure Wind Wind Speed Wind Gust Humidity Rainfall Rate (Hourly) solar Conditions
00:00 16.7 °C 14.7 °C 1018.5 hPa Calm   1.6 km/h 88% 0 mm 0 W/m2
00:10 16.6 °C 14.8 °C 1018.5 hPa Calm   1.6 km/h 89% 0 mm 0 W/m2
00:20 16.4 °C 14.6 °C 1018.5 hPa Calm   1.6 km/h 89% 0 mm 0 W/m2
00:30 16.3 °C 14.4 °C 1018.5 hPa Calm   1.6 km/h 89% 0 mm 0 W/m2
00:40 16.1 °C 14.3 °C 1018.5 hPa Calm   1.6 km/h 89% 0 mm 0 W/m2
00:50 15.9 °C 14.2 °C 1018.5 hPa Calm   1.6 km/h 90% 0 mm 0 W/m2
01:00 15.7 °C 14.1 °C 1018.5 hPa Calm   1.6 km/h 90% 0 mm 0 W/m2
01:10 15.7 °C 14.1 °C 1018.5 hPa Calm   3.2 km/h 90% 0 mm 0 W/m2
01:20 15.6 °C 13.9 °C 1018.5 hPa Calm   3.2 km/h 90% 0 mm 0 W/m2
01:30 15.5 °C 13.9 °C 1018.5 hPa Calm   1.6 km/h 90% 0 mm 0 W/m2
01:40 15.3 °C 13.8 °C 1018.2 hPa Calm   1.6 km/h 91% 0 mm 0 W/m2
01:50 15.2 °C 13.7 °C 1018.2 hPa Calm   3.2 km/h 91% 0 mm 0 W/m2
02:00 15 °C 13.6 °C 1018.2 hPa Calm   1.6 km/h 91% 0 mm 0 W/m2
02:10 14.9 °C 13.8 °C 1018.2 hPa Calm   1.6 km/h 93% 0 mm 0 W/m2
02:20 14.8 °C 13.5 °C 1018.2 hPa Calm   1.6 km/h 92% 0 mm 0 W/m2
02:30 14.6 °C 13.5 °C 1018.2 hPa West 1.6 km/h 3.2 km/h 93% 0 mm 0 W/m2
02:40 14.3 °C 13.2 °C 1018.5 hPa NW 1.6 km/h 3.2 km/h 93% 0 mm 0 W/m2
02:50 14.1 °C 13 °C 1018.5 hPa Calm   3.2 km/h 93% 0 mm 0 W/m2
03:00 14.1 °C 13.2 °C 1018.5 hPa Calm   3.2 km/h 94% 0 mm 0 W/m2
03:10 14 °C 13.1 °C 1018.5 hPa Calm   1.6 km/h 94% 0 mm 0 W/m2
03:20 13.8 °C 12.8 °C 1018.5 hPa Calm   1.6 km/h 94% 0 mm 0 W/m2
03:30 13.8 °C 12.8 °C 1018.5 hPa NNW 1.6 km/h 3.2 km/h 94% 0 mm 0 W/m2
03:40 13.8 °C 13 °C 1018.5 hPa West 1.6 km/h 4.8 km/h 95% 0 mm 0 W/m2
03:50 13.7 °C 12.9 °C 1018.2 hPa West 1.6 km/h 3.2 km/h 95% 0 mm 0 W/m2
04:00 13.6 °C 12.8 °C 1018.5 hPa WSW 1.6 km/h 3.2 km/h 95% 0 mm 0 W/m2
04:10 13.4 °C 12.6 °C 1018.5 hPa WSW 1.6 km/h 3.2 km/h 95% 0 mm 0 W/m2
04:20 13.2 °C 12.4 °C 1018.5 hPa West 3.2 km/h 4.8 km/h 95% 0 mm 0 W/m2
04:30 13 °C 12.2 °C 1018.5 hPa West 3.2 km/h 6.4 km/h 95% 0 mm 0 W/m2
04:40 13 °C 12.4 °C 1018.5 hPa West 3.2 km/h 6.4 km/h 96% 0 mm 0 W/m2
04:50 13.1 °C 12.5 °C 1018.5 hPa West 3.2 km/h 4.8 km/h 96% 0 mm 0 W/m2
05:00 13.1 °C 12.4 °C 1018.5 hPa West 1.6 km/h 4.8 km/h 96% 0 mm 0 W/m2
Knjazevac, Serbia
Compliments of Weather Underground - 2 mb